WEATHER DATA

YESTERDAY
Time Temp. Dewp. Hum. Wind dir Wind speed Wind gust Bar. 1h Prec. 24h Prec.
00:02 23 9.1 41 270 0.3 1.1 1012.8 0.0000 0.0000
00:12 22.9 8.6 40 315 0.3 0.6 1012.8 0.0000 0.0000
00:22 22.9 8.6 40 315 0.3 0.8 1013 0.0000 0.0000
00:32 22.9 8.6 40 315 0.3 0.8 1013 0.0000 0.0000
00:42 22.8 8.1 39 270 0.3 0.6 1013.1 0.0000 0.0000
00:52 22.8 8.5 40 225 0.3 0.8 1013.1 0.0000 0.0000
01:02 22.8 8.5 40 270 0.3 0.8 1013.2 0.0000 0.0000
01:13 22.7 8.4 40 270 0.3 0.8 1013.1 0.0000 0.0000
01:22 22.6 8 39 225 0.3 0.8 1013.1 0.0000 0.0000
01:32 22.5 7.9 39 135 0.3 0.8 1013 0.0000 0.0000
01:42 22.5 7.9 39 270 0.3 0.8 1013 0.0000 0.0000
01:53 22.4 7.8 39 270 0.3 0.8 1013 0.0000 0.0000
02:02 22.4 7.8 39 333 0.3 0.8 1012.8 0.0000 0.0000
02:12 22.3 8.1 40 270 0.3 0.6 1012.8 0.0000 0.0000
02:23 22.3 8.1 40 270 0.3 0.6 1012.7 0.0000 0.0000
02:32 22.2 8 40 270 0.3 0.8 1012.6 0.0000 0.0000
02:42 22.1 7.9 40 270 0.3 0.8 1012.6 0.0000 0.0000
02:53 22.1 7.9 40 315 0.3 0.8 1012.6 0.0000 0.0000
03:03 22 7.8 40 270 0.3 0.8 1012.7 0.0000 0.0000
03:12 21.9 8.1 41 270 0.3 0.8 1012.7 0.0000 0.0000
03:22 21.8 7.6 40 236 0.3 0.8 1012.7 0.0000 0.0000
03:33 21.7 7.5 40 0.3 1.1 1012.8 0.0000 0.0000
03:43 21.6 7.4 40 270 0.3 1.1 1012.7 0.0000 0.0000
03:52 21.5 7.7 41 270 0.3 0.8 1012.8 0.0000 0.0000
04:03 21.4 7.6 41 315 0.3 0.8 1012.8 0.0000 0.0000
04:13 21.3 7.5 41 270 0.3 0.8 1012.8 0.0000 0.0000
04:23 21.2 7.4 41 270 0.3 0.8 1012.8 0.0000 0.0000
04:33 21.2 7.4 41 270 0.3 1.1 1012.8 0.0000 0.0000
04:43 21.1 7.7 42 315 0.3 0.8 1012.8 0.0000 0.0000
04:53 21.1 7.7 42 270 0.3 1.4 1012.8 0.0000 0.0000
05:02 21 7.6 42 270 0.3 1.1 1012.8 0.0000 0.0000
05:13 21 7.6 42 270 0.3 0.6 1012.7 0.0000 0.0000
05:23 21 7.3 41 315 0.3 1.1 1012.6 0.0000 0.0000
05:33 21 7.3 41 315 0.3 1.1 1012.6 0.0000 0.0000
05:43 21 7.6 42 270 0.3 0.8 1012.6 0.0000 0.0000
05:53 20.9 7.5 42 270 0.3 0.8 1012.6 0.0000 0.0000
06:03 20.9 7.5 42 270 0.3 0.8 1012.6 0.0000 0.0000
06:13 21 7.6 42 270 0.3 1.1 1012.6 0.0000 0.0000
06:23 21 7.6 42 270 0.3 0.8 1012.6 0.0000 0.0000
06:33 21 7.6 42 225 0.3 0.8 1012.6 0.0000 0.0000
06:43 21.1 7.7 42 270 0.3 0.8 1012.6 0.0000 0.0000
06:54 21.2 7.8 42 225 0.3 0.8 1012.7 0.0000 0.0000
07:03 21.1 7.7 42 341 0.3 0.8 1012.6 0.0000 0.0000
07:13 20.9 7.9 43 315 0.3 0.8 1012.6 0.0000 0.0000
07:23 20.8 7.8 43 315 0.3 0.8 1012.6 0.0000 0.0000
07:33 20.8 7.8 43 0.3 0.8 1012.7 0.0000 0.0000
07:43 20.8 7.8 43 270 0.3 0.8 1013 0.0000 0.0000
07:53 20.7 8 44 270 0.3 1.1 1013 0.0000 0.0000
08:04 20.8 8.1 44 270 0.3 0.8 1013 0.0000 0.0000
08:13 20.9 8.5 45 315 0.3 1.1 1013 0.0000 0.0000
08:23 20.9 8.5 45 270 0.3 0.8 1013.1 0.0000 0.0000
08:33 20.9 9.2 47 270 0.3 0.6 1013.1 0.0000 0.0000
08:44 21.1 9 46 180 0.3 0.8 1013.1 0.0000 0.0000
08:53 21.1 9 46 239 0.3 0.6 1013.1 0.0000 0.0000
09:03 21.1 9 46 135 0.3 1.1 1013 0.0000 0.0000
09:14 21.2 9.1 46 341 0.3 0.8 1013.2 0.0000 0.0000
09:23 21.2 9.5 47 270 0.3 0.8 1013.4 0.0000 0.0000
09:33 21.2 9.5 47 315 0.3 0.8 1013.6 0.0000 0.0000
09:44 21.1 9.7 48 180 0.3 1.1 1013.8 0.0000 0.0000
09:54 21.3 10.2 49 180 0.3 1.1 1014 0.0000 0.0000
10:03 21.5 10.7 50 173 0.3 0.6 1014 0.0000 0.0000
10:13 21.8 10.9 50 146 0.3 0.8 1014.2 0.0000 0.0000
10:24 22 11.1 50 165 0.3 1.4 1014.3 0.0000 0.0000
10:34 22.1 11.2 50 144 0.3 0.6 1014.6 0.0000 0.0000
10:43 22 11.4 51 161 0.3 1.1 1014.5 0.0000 0.0000
10:54 21.8 11.8 53 135 0.3 0.8 1014.4 0.0000 0.0000
11:04 21.8 11.8 53 180 0.3 0.6 1014.5 0.0000 0.0000
11:13 21.7 12 54 270 0.3 1.1 1014.5 0.0000 0.0000
11:24 21.6 11.6 53 90 0.3 0.6 1014.6 0.0000 0.0000
11:34 21.6 11.9 54 90 0.3 0.6 1014.9 0.0000 0.0000
11:44 21.5 11.5 53 270 0.3 0.8 1014.7 0.0000 0.0000
11:53 21.6 12.2 55 45 0.3 0.6 1014.9 0.0000 0.0000
12:04 21.6 11.6 53 270 0.3 0.8 1015 0.0000 0.0000
12:14 21.5 11.5 53 90 0.3 0.6 1015.2 0.0000 0.0000
12:24 21.4 11.4 53 270 0.3 0.8 1015.2 0.0000 0.0000
12:34 21.4 11.4 53 90 0.3 0.8 1015.2 0.0000 0.0000
12:44 21.4 11.7 54 270 0.3 1.1 1015.3 0.0000 0.0000
12:54 21.1 12.3 57 270 0.3 0.6 1015.2 0.0000 0.0000
13:04 20.9 12.1 57 18 0.3 0.6 1015 0.0000 0.0000
13:14 20.7 12.4 59 26 0.3 0.6 1014.9 0.0000 0.0000
13:24 20.6 12.6 60 315 0.3 0.8 1015 0.0000 0.0000
13:34 20.6 12.6 60 180 0.3 0.8 1015 0.0000 0.0000
13:44 20.6 12.8 61 135 0.3 0.6 1015 0.0000 0.0000
13:54 20.5 12.7 61 225 0.3 0.8 1015 0.0000 0.0000
14:04 20.5 12.7 61 270 0.3 0.8 1015.1 0.0000 0.0000
14:14 20.4 13.1 63 270 0.3 1.1 1015.2 0.0000 0.0000
14:24 20.4 13.1 63 180 0.3 0.8 1015.2 0.0000 0.0000
14:36 20.2 13.4 65 270 0.3 0.8 1015.2 0.3030 0.3030
14:46 20.1 13.3 65 225 0.3 0.8 1015.2 0.4040 0.4040
14:56 20 13.2 65 0.3 0.8 1014.9 0.5050 0.5050
15:07 19.8 13.3 66 0.3 1.1 1014.6 0.6060 0.6060
15:16 19.7 13.2 66 270 0.3 1.1 1014.7 0.7070 0.7070
15:26 19.6 13.1 66 180 0.3 0.8 1014.6 0.4040 0.7070
15:36 19.5 12.8 65 225 0.3 0.8 1014.6 0.3030 0.7070
15:47 19.6 12.8 65 225 0.3 0.8 1014.4 0.2020 0.7070
15:56 19.8 13 65 90 0.3 0.8 1014.3 0.1010 0.7070
16:06 20.2 13.2 64 135 0.3 0.8 1014.2 0.0000 0.7070
16:17 20.4 12.9 62 90 0.3 1.4 1014.2 0.0000 0.7070
16:26 20.7 13.2 62 270 0.3 1.4 1014.1 0.0000 0.7070
16:36 20.8 13.3 62 45 0.3 0.8 1014.1 0.0000 0.7070
16:47 20.8 13.3 62 45 0.3 1.1 1014 0.0000 0.7070
16:57 20.8 12.8 60 21 0.3 0.8 1014.1 0.0000 0.7070
17:06 20.7 12.7 60 18 0.3 1.4 1014.4 0.0000 0.7070
17:16 20.6 12.6 60 315 0.3 1.4 1014.2 0.0000 0.7070
17:27 20.6 12.6 60 315 0.3 0.8 1014.2 0.0000 0.7070
17:37 20.7 12.7 60 315 0.3 0.8 1014.1 0.0000 0.7070
17:46 20.7 12.7 60 270 0.3 1.1 1014.1 0.0000 0.7070
17:57 20.8 12.8 60 270 0.3 1.1 1014.3 0.0000 0.7070
18:07 20.7 12.7 60 45 0.3 1.1 1014.2 0.0000 0.7070
18:17 20.2 12.4 61 225 0.3 1.7 1014.1 0.0000 0.7070
18:26 20.2 12.4 61 180 0.3 1.1 1014.1 0.0000 0.7070
18:37 19.9 12.2 61 215 0.3 1.1 1014 0.0000 0.7070
18:47 19.8 12.3 62 236 0.3 1.1 1014 0.0000 0.7070
18:56 20.2 12.4 61 180 0.3 0.6 1014.1 0.0000 0.7070
19:07 20.4 12.1 59 217 0.3 0.8 1014.3 0.0000 0.7070
19:17 20.1 11.8 59 270 0.3 1.1 1014.5 0.0000 0.7070
19:27 19.7 11.7 60 315 0.3 0.8 1014.5 0.0000 0.7070
19:37 20 11.8 59 135 0.3 0.6 1014.5 0.0000 0.7070
19:47 20.4 12.1 59 225 0.3 1.1 1014.5 0.0000 0.7070
19:57 20.4 11.9 58 206 0.3 1.4 1014.7 0.0000 0.7070
20:06 20.3 11.8 58 0.3 0.8 1014.9 0.0000 0.7070
20:17 20.4 11.9 58 168 0.3 0.6 1014.9 0.0000 0.7070
20:27 20.7 11.9 57 206 0.3 0.8 1014.9 0.0000 0.7070
20:37 20.9 12.1 57 90 0.3 0.6 1015 0.0000 0.7070
20:47 20.9 11.8 56 135 0.3 0.6 1015.1 0.0000 0.7070
20:57 21 11.9 56 135 0.3 0.6 1015.1 0.0000 0.7070
21:07 21.1 12 56 135 0.3 0.6 1015.2 0.0000 0.7070
21:17 21.2 12.1 56 198 0.3 0.6 1015.3 0.0000 0.7070
21:27 21.1 12 56 135 0.3 0.8 1015.3 0.0000 0.7070
21:37 21 11.9 56 153 0.3 0.8 1015.3 0.0000 0.7070
21:47 20.8 11.7 56 270 0.3 0.8 1015.4 0.0000 0.7070
21:58 20.8 11.7 56 135 0.3 0.6 1015.4 0.0000 0.7070
22:07 20.9 11.8 56 135 0.3 0.8 1015.5 0.0000 0.7070
22:17 20.2 11.7 58 225 0.3 0.6 1015.6 0.0000 0.7070
22:27 19.7 11.7 60 90 0.3 0.6 1015.7 0.0000 0.7070
22:38 19.3 11.6 61 239 0.3 0.8 1015.7 0.0000 0.7070
22:47 19 11.6 62 225 0.6 1.7 1015.7 0.0000 0.7070
22:57 18.7 11.5 63 227 0.6 1.1 1015.9 0.0000 0.7070
23:08 18.4 11.2 63 227 0.6 1.1 1016 0.0000 0.7070
23:17 18.3 11.4 64 233 0.6 1.1 1016.1 0.0000 0.7070
23:27 18.1 11.2 64 232 0.6 1.1 1016.1 0.0000 0.7070
23:38 18 11.3 65 225 0.6 1.1 1016.1 0.0000 0.7070
23:48 17.9 11.2 65 225 0.6 1.1 1016.1 0.0000 0.7070
23:57 17.8 11.1 65 225 0.6 1.1 1016.2 0.0000

DAY STATISTIC

2018-04-23
TEMPERATURE
AVERAGE
20.9
HIGH
23.0
00:02
LOW
17.8
23:57
PRESSURE
AVERAGE
1014.0
HIGH
1016.2
23:57
LOW
1012.6
02:32
DEWPOINT
AVERAGE
10.5
HIGH
13.4
14:36
LOW
7.3
05:23
HUMIDITY
AVERAGE
52
HIGH
66
15:07
LOW
39
00:42
WIND SPEED
AVERAGE
0.3
HIGH
0.6
22:47
WIND GUST
AVERAGE
0.9
HIGH
1.7
18:17
WIND DIRECTION
PREVAILING
W
32.6%
N
3.5
NE
3.5
E
5.6
SE
10.4
S
9.7
SW
18.8
W
32.6
NW
12.5
PRECIPITATION
RAIN HOUR
0.7
RAIN DAY
0.7
TEMPERATURE (°C)
LOW
17.8
HIGH
23.0
AVERAGE
20.9
PRESSURE (hpa)
LOW
1012.6
HIGH
1016.2
AVERAGE
1014.0
DEVICE